• Join FlightAware (Why Join?)
  • Login
  • US Flag 
04:43PM EDT


 

Airport Tracker/Info


-or-


 

Live Flight TrackerFlight Track Log ✈ VOZ1487 ✈ 13-Jun-2013 ✈ YPPH / PER - YBRM / BME

Flight Track Log - Related Links

Times and Time Zones

All times are in EDT time to prevent confusion due to time zone crossing. See the VOZ1487 flight status page for this flight to view local times or setup timezone preferences in your user account.

Time Position Orientation Groundspeed Altitude Reporting Facility
EDT Latitude Longitude Course Direction KTS MPH feet Rate Location/Type
04:52AM -31.9123 116.0152 59° Northeast 154 177 2,000  Level Aus ATC (RADAR)
04:53AM -31.8961 116.0468 59° Northeast 185 213 3,100 2,160 Climbing Aus ATC (RADAR)
04:54AM -31.8536 116.1379 61° Northeast 249 287 6,200 2,400 Climbing Aus ATC (RADAR)
04:55AM -31.8492 116.1595 76° East 254 292 7,000 3,120 Climbing Aus ATC (RADAR)
04:55AM -31.8394 116.2107 77° East 262 302 8,800 2,460 Climbing Aus ATC (RADAR)
04:56AM -31.8213 116.3033 77° East 285 328 10,900 2,160 Climbing Aus ATC (RADAR)
04:57AM -31.8098 116.3634 77° East 309 356 12,300 2,460 Climbing Aus ATC (RADAR)
04:58AM -31.7925 116.4511 77° East 318 366 14,400 2,160 Climbing Aus ATC (RADAR)
04:58AM -31.7780 116.5249 77° East 336 387 15,600 2,100 Climbing Aus ATC (RADAR)
05:00AM -31.7267 116.6671 67° East 352 405 18,600 2,220 Climbing Aus ATC (RADAR)
05:00AM -31.7088 116.6886 46° Northeast 357 411 19,200 2,160 Climbing Aus ATC (RADAR)
05:00AM -31.6674 116.7393 46° Northeast 363 418 20,400 1,800 Climbing Aus ATC (RADAR)
05:01AM -31.6013 116.8206 46° Northeast 373 429 22,000 1,680 Climbing Aus ATC (RADAR)
05:02AM -31.5564 116.8732 45° Northeast 381 438 23,000 1,620 Climbing Aus ATC (RADAR)
05:03AM -31.4655 116.9148 21° North 382 440 24,500 1,440 Climbing Aus ATC (RADAR)
05:03AM -31.3962 116.9433 19° North 396 456 25,300 1,680 Climbing Aus ATC (RADAR)
05:05AM -31.2610 116.9990 19° North 387 445 27,900 1,800 Climbing Aus ATC (RADAR)
05:05AM -31.2351 117.0096 19° North 391 450 28,200 720 Climbing Aus ATC (RADAR)
05:06AM -31.1732 117.0350 19° North 404 465 28,500 780 Climbing Aus ATC (RADAR)
05:07AM -31.0529 117.0840 19° North 426 490 29,500 1,020 Climbing Aus ATC (RADAR)
05:07AM -30.9871 117.1108 19° North 430 495 30,200 960 Climbing Aus ATC (RADAR)
05:08AM -30.8926 117.1495 19° North 434 499 30,900 840 Climbing Aus ATC (RADAR)
05:09AM -30.7396 117.2180 21° North 445 512 32,100 780 Climbing Aus ATC (RADAR)
05:10AM -30.6317 117.2677 22° Northeast 456 525 32,700 720 Climbing Aus ATC (RADAR)
05:11AM -30.6025 117.2810 21° North 454 522 33,000 900 Climbing Aus ATC (RADAR)
05:11AM -30.5047 117.3263 22° Northeast 454 522 33,700 840 Climbing Aus ATC (RADAR)
05:12AM -30.3962 117.3758 21° North 457 526 34,500 780 Climbing Aus ATC (RADAR)
05:13AM -30.2984 117.4211 22° Northeast 454 522 35,100 300 Climbing Aus ATC (RADAR)
05:14AM -30.1775 117.4758 21° North 471 542 35,100  Level Aus ATC (RADAR)
05:15AM -30.0956 117.5124 21° North 474 545 35,100  Level Aus ATC (RADAR)
05:15AM -30.0648 117.5262 21° North 476 548 35,100  Level Aus ATC (RADAR)
05:16AM -29.9940 117.5595 22° Northeast 473 544 35,100  Level Aus ATC (RADAR)
05:17AM -29.8801 117.6098 21° North 480 552 35,100  Level Aus ATC (RADAR)
05:17AM -29.8083 117.6426 22° Northeast 478 550 35,100  Level Aus ATC (RADAR)
05:18AM -29.7068 117.6896 22° Northeast 473 544 35,100  Level Aus ATC (RADAR)
05:19AM -29.6348 117.7211 21° North 474 545 35,100  Level Aus ATC (RADAR)
05:20AM -29.5006 117.7823 22° Northeast 482 555 35,100  Level Aus ATC (RADAR)
05:20AM -29.4691 117.7959 21° North 483 556 35,100  Level Aus ATC (RADAR)
05:20AM -29.3951 117.8277 21° North 487 560 35,100  Level Aus ATC (RADAR)
05:21AM -29.2805 117.8799 22° Northeast 484 557 35,100  Level Aus ATC (RADAR)
05:22AM -29.2069 117.9123 21° North 485 558 35,100  Level Aus ATC (RADAR)
05:23AM -29.0806 117.9687 21° North 488 562 35,100  Level Aus ATC (RADAR)
05:24AM -29.0068 118.0006 21° North 488 562 35,100  Level Aus ATC (RADAR)
05:25AM -28.8498 118.0698 21° North 485 558 35,100  Level Aus ATC (RADAR)
05:25AM -28.8185 118.0836 21° North 485 558 35,100  Level Aus ATC (RADAR)
05:26AM -28.7451 118.1160 21° North 487 560 35,100 120 Level Aus ATC (RADAR)
05:27AM -28.6290 118.1669 21° North 490 564 35,300 480 Climbing Aus ATC (RADAR)
05:27AM -28.5561 118.2003 22° Northeast 488 562 35,900 840 Climbing Aus ATC (RADAR)
05:28AM -28.4417 118.2507 21° North 480 552 36,600 600 Climbing Aus ATC (RADAR)
05:29AM -28.3683 118.2821 21° North 483 556 36,800 240 Climbing Aus ATC (RADAR)
05:30AM -28.2004 118.3538 21° North 485 558 37,100 180 Climbing Aus ATC (RADAR)
05:30AM -28.1694 118.3670 21° North 484 557 37,100  Level Aus ATC (RADAR)
05:33AM -27.7154 118.5661 21° North 37,000  Descending Aus ATC (Calculated)
05:34AM -27.5962 118.6182 21° North 37,000  Level Aus ATC (Calculated)
05:35AM -27.8365 118.5153 200° South  Level FlightAware Approximate
05:36AM -27.4591 118.6737 21° North  Level Estimated
05:37AM -27.3445 118.7242 21° North  Level FlightAware Approximate
05:38AM -27.2299 118.7745 21° North  Level FlightAware Approximate
05:39AM -27.1152 118.8248 21° North  Level FlightAware Approximate
05:39AM -27.0845 118.8427 21° North 577 664 37,100  Level Aus ATC (RADAR)
05:42AM -26.7360 118.9938 20° North 37,000  Descending Aus ATC (Calculated)
05:42AM -26.6795 119.0177 20° North 37,000  Level Aus ATC (Calculated)
05:44AM -26.8497 118.9378 203° Southwest  Level FlightAware Approximate
05:45AM -26.7362 118.9911 23° Northeast  Level FlightAware Approximate
05:45AM -26.2412 119.2020 17° North 37,000  Level Aus ATC (Calculated)
05:46AM -26.6815 119.0132 21° North  Level FlightAware Approximate
05:46AM -26.1704 119.2262 21° North 493 567 37,100  Level Aus ATC (RADAR)
05:48AM -25.8514 119.3610 21° North 37,000  Descending Aus ATC (Calculated)
05:50AM -25.7056 119.4221 21° North  Level FlightAware Approximate
05:50AM -25.7257 119.4150 21° North 461 531 37,100  Level Aus ATC (RADAR)
05:50AM -25.6506 119.4482 22° Northeast 480 552 37,100  Level Aus ATC (RADAR)
05:50AM -25.6193 119.4609 20° North 480 552 37,100  Level Aus ATC (RADAR)
05:51AM -25.5450 119.4923 21° North 486 559 37,100  Level Aus ATC (RADAR)
05:52AM -25.4185 119.5443 20° North 485 558 37,100  Level Aus ATC (RADAR)
05:53AM -25.3439 119.5762 21° North 490 564 37,100  Level Aus ATC (RADAR)
05:53AM -25.2300 119.6223 20° North 480 552 37,100  Level Aus ATC (RADAR)
05:54AM -25.1549 119.6546 21° North 488 562 37,100  Level Aus ATC (RADAR)
05:56AM -24.9271 119.7475 20° North 481 554 37,100  Level Aus ATC (RADAR)
05:56AM -24.8955 119.7607 21° North 483 556 37,100  Level Aus ATC (RADAR)
05:57AM -24.7808 119.8070 20° North 481 554 37,100  Level Aus ATC (RADAR)
05:57AM -24.7485 119.8207 21° North 487 560 37,100  Level Aus ATC (RADAR)
05:58AM -24.6765 119.8494 20° North 479 551 37,100  Level Aus ATC (RADAR)
05:59AM -24.5699 119.8934 21° North 486 559 37,100  Level Aus ATC (RADAR)
05:59AM -24.4632 119.9372 20° North 490 564 37,100  Level Aus ATC (RADAR)
06:00AM -24.3919 119.9658 20° North 478 550 37,100  Level Aus ATC (RADAR)
06:00AM -24.3602 119.9788 20° North 480 552 37,100  Level Aus ATC (RADAR)
06:01AM -24.2857 120.0092 20° North 485 558 37,100  Level Aus ATC (RADAR)
06:02AM -24.1826 120.0512 20° North 478 550 37,100  Level Aus ATC (RADAR)
06:02AM -24.1106 120.0804 20° North 475 547 37,100  Level Aus ATC (RADAR)
06:03AM -23.9963 120.1266 20° North 478 550 37,100  Level Aus ATC (RADAR)
06:04AM -23.8923 120.1687 20° North 479 551 37,100  Level Aus ATC (RADAR)
06:05AM -23.7546 120.2239 20° North 491 565 37,100  Level Aus ATC (RADAR)
06:05AM -23.7248 120.2361 21° North 485 558 37,100  Level Aus ATC (RADAR)
06:06AM -23.6524 120.2652 20° North 481 554 37,100  Level Aus ATC (RADAR)
06:07AM -23.5413 120.3109 21° North 469 540 37,100  Level Aus ATC (RADAR)
06:07AM -23.4672 120.3406 20° North 478 550 37,100  Level Aus ATC (RADAR)
06:08AM -23.3611 120.3828 20° North 479 551 37,100  Level Aus ATC (RADAR)
06:09AM -23.3308 120.3953 21° North 475 547 37,100  Level Aus ATC (RADAR)
06:09AM -23.2547 120.4247 20° North 486 559 37,100  Level Aus ATC (RADAR)
06:10AM -23.1184 120.4789 20° North 482 555 37,100  Level Aus ATC (RADAR)
06:10AM -23.0878 120.4915 21° North 479 551 37,100  Level Aus ATC (RADAR)
06:11AM -23.0156 120.5209 21° North 476 548 37,100  Level Aus ATC (RADAR)
06:12AM -22.9105 120.5625 20° North 480 552 37,100  Level Aus ATC (RADAR)
06:12AM -22.8371 120.5913 20° North 478 550 37,100  Level Aus ATC (RADAR)
06:13AM -22.7234 120.6367 20° North 475 547 37,100  Level Aus ATC (RADAR)
06:14AM -22.6917 120.6489 20° North 475 547 37,100  Level Aus ATC (RADAR)
06:14AM -22.6195 120.6776 20° North 474 545 37,100  Level Aus ATC (RADAR)
06:15AM -22.4862 120.7312 20° North 470 541 37,100  Level Aus ATC (RADAR)
06:16AM -22.4452 120.7475 20° North 470 541 37,100  Level Aus ATC (RADAR)
06:16AM -22.3711 120.7756 19° North 476 548 37,100  Level Aus ATC (RADAR)
06:17AM -22.2673 120.8165 20° North 472 543 37,100  Level Aus ATC (RADAR)
06:18AM -22.1946 120.8447 20° North 473 544 37,100  Level Aus ATC (RADAR)
06:19AM -22.0807 120.8888 20° North 471 542 37,100  Level Aus ATC (RADAR)
06:19AM -21.9802 120.9296 21° North 464 534 37,100  Level Aus ATC (RADAR)
06:21AM -21.8370 120.9861 20° North 467 537 37,100  Level Aus ATC (RADAR)
06:21AM -21.7330 121.0256 19° North 469 540 37,100  Level Aus ATC (RADAR)
06:22AM -21.6192 121.0692 20° North 470 541 37,100  Level Aus ATC (RADAR)
06:23AM -21.5479 121.0971 20° North 468 539 37,100  Level Aus ATC (RADAR)
06:24AM -21.4356 121.1409 20° North 467 537 37,100  Level Aus ATC (RADAR)
06:24AM -21.4045 121.1526 19° North 467 537 37,100  Level Aus ATC (RADAR)
06:25AM -21.3329 121.1806 20° North 467 537 37,100  Level Aus ATC (RADAR)
06:25AM -21.2727 121.2050 21° North 466 536 37,100  Level Aus ATC (RADAR)
06:28AM -20.8923 121.3520 20° North 37,000 -60 Descending Aus ATC (Calculated)
06:30AM -20.7522 121.4059 20° North  Level FlightAware Approximate
06:31AM -20.6355 121.4508 20° North  Level FlightAware Approximate
06:31AM -20.5261 121.4928 20° North 37,000  Level Aus ATC (Calculated)
06:31AM -20.4672 121.5154 20° North 37,000  Level Aus ATC (Calculated)
06:33AM -20.3271 121.5690 20° North  Level FlightAware Approximate
06:34AM -20.2103 121.6136 20° North  Level FlightAware Approximate
06:35AM -20.0935 121.6581 20° North  Level FlightAware Approximate
06:35AM -20.0550 121.6728 360° North 9,300  Level Aus ATC (Calculated)
06:36AM -19.9309 121.6728 North  Level FlightAware Approximate
06:36AM -19.9035 121.7305 200° South 9,300  Level Aus ATC (Calculated)
06:38AM -20.1001 121.6556 200° South  Level FlightAware Approximate
06:39AM -19.9833 121.7001 20° North  Level FlightAware Approximate
06:39AM -19.4456 121.9042 12° North 9,300  Level Aus ATC (Calculated)
06:41AM -19.2816 121.9403 20° North  Level Estimated
06:41AM -19.1937 121.9994 20° North 9,300  Level Aus ATC (Calculated)
06:43AM -19.0359 122.0588 20° North  Level FlightAware Approximate
06:43AM -18.9102 122.1061 200° South 9,300  Level Aus ATC (Calculated)
06:44AM -18.9190 122.1027 20° North  Level FlightAware Approximate
06:44AM -18.7920 122.1504 360° North 9,300  Level Aus ATC (Calculated)
06:44AM -18.7920 122.1504 20° North 9,300  Level Aus ATC (Calculated)
06:46AM -18.6303 122.2110 20° North  Level FlightAware Approximate
06:46AM -18.5261 122.2500 19° North 9,300  Level Aus ATC (Calculated)
06:47AM -18.5133 122.2548 20° North  Level FlightAware Approximate
06:48AM -18.3877 122.3017 20° North  Level FlightAware Approximate
06:49AM -18.5047 122.2580 200° South  Level FlightAware Approximate
06:50AM -18.3877 122.3017 20° North  Level FlightAware Approximate
06:50AM -18.3147 122.2711 175° South 500  Level Aus ATC (Calculated)
06:52AM -18.5453 122.2936 175° South  Level FlightAware Approximate
06:52AM -18.1305 122.2532 360° North 500  Level Aus ATC (Calculated)
06:52AM -18.1305 122.2532 175° South 500  Level Aus ATC (Calculated)
06:54AM -18.2993 122.2696 175° South  Level FlightAware Approximate
06:55AM -18.4229 122.2817 175° South  Level FlightAware Approximate
06:56AM -18.3516 122.2747 355° North  Level FlightAware Approximate
06:57AM -18.2281 122.2627 355° North  Level FlightAware Approximate
06:58AM -18.1045 122.2507 355° North  Level FlightAware Approximate
06:59AM -17.9463 122.2353 355° North  Level FlightAware Approximate
07:00AM -17.9447 122.2317 355° North  Level Estimated
07:01AM -17.9463 122.2353 355° North  Level FlightAware Approximate
07:02AM -17.9447 122.2317 355° North  Level Estimated
07:03AM -17.9463 122.2353 355° North  Level FlightAware Approximate
07:04AM -17.9447 122.2317 355° North  Level Estimated
07:05AM -17.9463 122.2353 355° North  Level FlightAware Approximate
07:06AM -17.9447 122.2317 355° North  Level Estimated
07:07AM -17.9463 122.2353 355° North  Level FlightAware Approximate
07:08AM -17.9447 122.2317 355° North  Level Estimated
07:09AM -17.9463 122.2353 355° North  Level FlightAware Approximate
07:10AM -17.9447 122.2317 355° North  Level Estimated
07:11AM -17.9463 122.2353 355° North  Level FlightAware Approximate
07:12AM -17.9447 122.2317 355° North  Level Estimated